Tiempo atmosférico en la estación meteorológica de Arganda Del Rey, Madrid (533 m.)



Fecha
DESCASC
Temp. máxima en grados centígrados (hora)
DESCASC
Temp. mínima en grados centígrados (hora)
DESCASC
Temp. media en grados centígrados
DESCASC
Racha de viento máxima en m/sg (hora)
DESCASC
Velocidad máxima media en intervalos de 10 minutos(hora)
DESCASC
Precipitaciones diarias en mm
DESCASC
Precipitaciones de 00:00 a 06:00 en mm
DESCASC
Precipitaciones de 06:00 a 12:00 en mm
DESCASC
Precipitaciones de 12:00 a 18:00 en mm
DESCASC
Precipitaciones de 18:00 a 24:00 en mm
DESCASC
29-06-2019 42.3 (19:00) 23.4 (00:00) 32.8 8.33 (23:59) 5.83 (00:10) 0 0 0 0 0
30-06-2019 40.5 (19:00) 23 (00:00) 31.8 11.67 (00:50) 7.5 (00:40) 0 0 0 0 0
28-06-2019 41.7 (18:00) 21 (00:00) 31.4 12.5 (00:10) 8.61 (00:10) 0 0 0 0 0
27-06-2019 40.9 (18:10) 21.5 (00:00) 31.2 14.72 (13:30) 10 (13:20) 0 0 0 0 0
03-07-2019 37.1 (19:00) 23 (00:00) 30 13.89 (23:30) 8.89 (23:30) 0 0 0 0 0
12-07-2019 39.7 (17:00) 19.4 (00:00) 29.6 6.67 (15:00) 5 (15:00) 0 0 0 0 0
13-07-2019 36.4 (18:20) 22.3 (00:00) 29.4 12.5 (20:00) 8.61 (20:00) 0 0 0 0 0
16-07-2019 38 (17:20) 20.4 (07:00) 29.2 11.39 (23:40) 7.78 (23:40) 0 0 0 0 0
26-06-2019 37.1 (19:00) 21.3 (00:00) 29.2 12.5 (23:59) 8.06 (23:59) 0 0 0 0 0
04-07-2019 36.1 (18:10) 22.1 (00:00) 29.1 13.89 (00:20) 9.44 (00:20) 0 0 0 0 0
01-07-2019 37 (16:50) 21.3 (07:10) 29.1 12.5 (21:50) 8.06 (21:50) 0 0 0 0 0
15-07-2019 38.5 (19:10) 19.5 (06:50) 29 11.11 (19:50) 5.83 (19:50) 0 0 0 0 0
18-07-2019 36.9 (17:50) 20.1 (07:00) 28.5 6.94 (16:10) 3.89 (18:20) 0 0 0 0 0
05-07-2019 35.4 (18:30) 21.1 (00:00) 28.3 10.28 (00:30) 7.22 (15:10) 0 0 0 0 0
17-07-2019 34.8 (19:30) 21.7 (07:10) 28.3 8.33 (01:00) 5 (01:00) 0 0 0 0 0
02-07-2019 36.6 (18:10) 19.9 (06:30) 28.2 11.39 (23:20) 6.11 (23:30) 0 0 0 0 0
11-07-2019 39.1 (19:00) 16.6 (00:00) 27.8 6.67 (13:20) 3.61 (19:20) 0 0 0 0 0
25-06-2019 37.1 (19:00) 17.9 (00:00) 27.5 12.78 (18:30) 5.83 (13:30) 0 0 0 0 0
24-06-2019 33.8 (18:40) 20.7 (00:00) 27.3 13.61 (01:40) 8.61 (01:50) 0 0 0 0 0
14-07-2019 34.7 (18:50) 18.8 (00:00) 26.8 8.06 (22:40) 4.72 (00:10) 0 0 0 0 0
23-06-2019 35.1 (17:40) 18 (00:00) 26.5 13.61 (16:00) 5.83 (15:10) 0 0 0 0 0
07-07-2019 35.9 (19:10) 16.4 (00:00) 26.2 8.89 (16:50) 5.83 (15:50) 0 0 0 0 0
06-07-2019 35.9 (16:50) 15.4 (00:00) 25.7 11.11 (16:20) 6.39 (20:00) 0 0 0 0 0
10-07-2019 34.2 (19:10) 17.2 (00:00) 25.7 8.06 (10:00) 4.44 (10:00) 0 0 0 0 0
08-07-2019 31.8 (16:50) 18.4 (00:00) 25.1 11.94 (21:30) 7.78 (22:30) 0 0 0 0 0
21-06-2019 31.3 (17:00) 17.9 (00:00) 24.6 11.11 (17:40) 5.28 (22:30) 0 0 0 0 0
22-06-2019 32.8 (19:00) 16.1 (00:00) 24.4 8.89 (15:30) 5.56 (15:30) 0 0 0 0 0
09-07-2019 31.4 (16:40) 16.4 (00:00) 23.9 9.72 (19:00) 5.56 (19:10) 0 0 0 0 0
20-06-2019 29.9 (19:10) 14.6 (00:00) 22.3 10.28 (14:20) 6.39 (19:10) 0 0 0 0 0

Gráficas

Temp. máximas Temp. mínimas Temp. medias Precipitaciones Rachas de viento máximas Velocidades máximas media en intervalos de 10 minutos

Datos horarios

Fecha y hora oficial Temperatura (ºC) Velocidad del viento (km/h) Dirección del viento Racha (km/h) Dirección de racha Precipitación (mm) Presión (hPa) Tendencia (hPa) Humedad (%)
2019-07-19 23:00:00 32.7 15 Sudeste 29 Sudeste 0 -- -- 23
2019-07-19 22:00:00 33.6 0 Calma 3 Oeste 0 -- -- 27
2019-07-19 21:00:00 36.3 2 Sudoeste 10 Oeste 0 -- -- 22
2019-07-19 20:00:00 36.5 5 Oeste 15 Sudoeste 0 -- -- 22
2019-07-19 19:00:00 37.3 11 Sudoeste 18 Sudoeste 0 -- -- 21
2019-07-19 18:00:00 36.6 11 Sudoeste 25 Sudoeste 0 -- -- 21
2019-07-19 17:00:00 37.9 13 Sudoeste 32 Sudoeste 0 -- -- 20
2019-07-19 16:00:00 37.6 18 Sudoeste 30 Oeste 0 -- -- 21
2019-07-19 15:00:00 36.6 12 Oeste 24 Sudoeste 0 -- -- 23
2019-07-19 14:00:00 35.4 8 Sur 24 Sur 0 -- -- 26
2019-07-19 13:00:00 33.8 9 Sur 17 Sur 0 -- -- 30
2019-07-19 12:00:00 31.6 6 Sudeste 16 Sudeste 0 -- -- 33
2019-07-19 11:00:00 29.6 3 Este 13 Este 0 -- -- 38
2019-07-19 10:00:00 27.7 5 Nordeste 10 Nordeste 0 -- -- 42
2019-07-19 09:00:00 25.2 3 Nordeste 11 Nordeste 0 -- -- 45
2019-07-19 08:00:00 22.9 7 Nordeste 13 Nordeste 0 -- -- 47
2019-07-19 07:00:00 22.7 8 Nordeste 14 Nordeste 0 -- -- 47
2019-07-19 06:00:00 23.3 5 Nordeste 14 Norte 0 -- -- 47
2019-07-19 05:00:00 23.9 8 Nordeste 17 Norte 0 -- -- 46
2019-07-19 04:00:00 24.9 10 Norte 21 Nordeste 0 -- -- 45
2019-07-19 03:00:00 26 10 Nordeste 29 Norte 0 -- -- 44
2019-07-19 02:00:00 27.1 18 Nordeste 29 Norte 0 -- -- 42
2019-07-19 01:00:00 28.6 18 Norte 33 Norte 0 -- -- 39
2019-07-19 00:00:00 30.5 11 Nordeste 20 Nordeste 0 -- -- 34
2019-07-18 23:00:00 30 6 Nordeste 17 Nordeste 0 -- -- 31
2019-07-18 22:00:00 31.7 0 Calma 6 Oeste 0 -- -- 31
2019-07-18 21:00:00 34.1 5 Sudoeste 11 Sudoeste 0 -- -- 26
2019-07-18 20:00:00 35.8 6 Sudoeste 19 Sudoeste 0 -- -- 23
2019-07-18 19:00:00 36.9 6 Oeste 22 Sudoeste 0 -- -- 22
2019-07-18 18:00:00 36.9 6 Sur 22 Oeste 0 -- -- 22
2019-07-18 17:00:00 36.3 7 Norte 25 Sudoeste 0 -- -- 23
2019-07-18 16:00:00 36 8 Noroeste 22 Oeste 0 -- -- 23
2019-07-18 15:00:00 35.1 12 Sur 21 Oeste 0 -- -- 26
2019-07-18 14:00:00 33.8 12 Sudoeste 18 Sudoeste 0 -- -- 28
2019-07-18 13:00:00 31.8 6 Sudoeste 14 Oeste 0 -- -- 32
2019-07-18 12:00:00 30.3 7 Noroeste 19 Oeste 0 -- -- 35
2019-07-18 11:00:00 28 5 Norte 10 Norte 0 -- -- 39
2019-07-18 10:00:00 25.7 3 Noroeste 8 Este 0 -- -- 43
2019-07-18 09:00:00 23.3 5 Nordeste 10 Nordeste 0 -- -- 48
2019-07-18 08:00:00 20.9 4 Nordeste 9 Nordeste 0 -- -- 55
2019-07-18 07:00:00 20.1 4 Nordeste 10 Nordeste 0 -- -- 59
2019-07-18 06:00:00 20.5 5 Nordeste 13 Nordeste 0 -- -- 55
2019-07-18 05:00:00 21.3 5 Nordeste 9 Nordeste 0 -- -- 54
2019-07-18 04:00:00 21.6 0 Calma 6 Este 0 -- -- 45
2019-07-18 03:00:00 22.4 3 Este 6 Nordeste 0 -- -- 44
2019-07-18 02:00:00 23.6 3 Norte 5 Norte 0 -- -- 44
2019-07-18 01:00:00 24.9 3 Sudoeste 7 Sudoeste 0 -- -- 37
2019-07-18 00:00:00 25.9 5 Oeste 6 Oeste 0 -- -- 33
2019-07-17 23:00:00 27.1 0 Calma 6 Sur 0 -- -- 30
2019-07-17 22:00:00 29.7 4 Sudoeste 10 Oeste 0 -- -- 30
2019-07-17 21:00:00 33 10 Oeste 17 Sudoeste 0 -- -- 23
2019-07-17 20:00:00 34.3 8 Sur 15 Sur 0 -- -- 22
2019-07-17 19:00:00 34 8 Sudoeste 18 Oeste 0 -- -- 21
2019-07-17 18:00:00 33.8 9 Sudoeste 18 Sudoeste 0 -- -- 20
2019-07-17 17:00:00 34.3 11 Sudoeste 23 Sudoeste 0 -- -- 19
2019-07-17 16:00:00 34.2 10 Sudoeste 27 Sudoeste 0 -- -- 19
2019-07-17 15:00:00 33.2 12 Oeste 25 Sudoeste 0 -- -- 19
2019-07-17 14:00:00 32.5 16 Sudoeste 25 Sudoeste 0 -- -- 22
2019-07-17 13:00:00 31.1 15 Oeste 24 Oeste 0 -- -- 31
2019-07-17 12:00:00 29.5 12 Oeste 20 Sudoeste 0 -- -- 33
2019-07-17 11:00:00 27.5 8 Oeste 15 Oeste 0 -- -- 41
2019-07-17 10:00:00 25.6 7 Sur 13 Sur 0 -- -- 45
2019-07-17 09:00:00 23.6 6 Sur 16 Sudeste 0 -- -- 51
2019-07-17 08:00:00 22.1 6 Sudeste 12 Sudeste 0 -- -- 54
2019-07-17 07:00:00 22 0 Calma 9 Sur 0 -- -- 53
2019-07-17 06:00:00 23.2 8 Sur 15 Sudeste 0 -- -- 48
2019-07-17 05:00:00 24.1 10 Sudeste 14 Sudeste 0 -- -- 46
2019-07-17 04:00:00 25.2 9 Sudeste 22 Sudeste 0 -- -- 41
2019-07-17 03:00:00 26.9 14 Sudeste 24 Sur 0 -- -- 37
2019-07-17 02:00:00 28.9 12 Sur 29 Sur 0 -- -- 32
2019-07-17 01:00:00 30.7 18 Sudoeste 30 Sur 0 -- -- 29
2019-07-17 00:00:00 30.9 22 Sudeste 41 Sudeste 0 -- -- 39
2019-07-16 23:00:00 33.5 27 Sudeste 39 Sudeste 0 -- -- 30
2019-07-16 22:00:00 32.4 3 Noroeste 8 Oeste 0 -- -- 27
2019-07-16 21:00:00 35.3 3 Oeste 18 Sur 0 -- -- 22
2019-07-16 20:00:00 37.6 5 Sur 26 Oeste 0 -- -- 19
2019-07-16 19:00:00 37.9 8 Oeste 24 Oeste 0 -- -- 21
2019-07-16 18:00:00 37.6 14 Oeste 26 Sudoeste 0 -- -- 20
2019-07-16 17:00:00 37.2 13 Sudoeste 27 Oeste 0 -- -- 21
2019-07-16 16:00:00 36.5 14 Sudoeste 28 Sudoeste 0 -- -- 21
2019-07-16 15:00:00 35.9 10 Sur 24 Sur 0 -- -- 24
2019-07-16 14:00:00 34.8 11 Este 28 Sudeste 0 -- -- 27
2019-07-16 13:00:00 33 12 Este 23 Este 0 -- -- 30
2019-07-16 12:00:00 31.2 11 Este 19 Este 0 -- -- 34
2019-07-16 11:00:00 28.6 8 Norte 17 Nordeste 0 -- -- 36
2019-07-16 10:00:00 26 8 Norte 15 Norte 0 -- -- 38
2019-07-16 09:00:00 24 4 Nordeste 10 Norte 0 -- -- 41
2019-07-16 08:00:00 21.5 4 Nordeste 9 Nordeste 0 -- -- 45
2019-07-16 07:00:00 20.4 2 Nordeste 7 Nordeste 0 -- -- 46
2019-07-16 06:00:00 21.5 3 Nordeste 7 Nordeste 0 -- -- 44
2019-07-16 05:00:00 22.4 5 Sur 13 Norte 0 -- -- 41
2019-07-16 04:00:00 24 8 Norte 14 Nordeste 0 -- -- 37
2019-07-16 03:00:00 23.6 4 Nordeste 9 Norte 0 -- -- 35
2019-07-16 02:00:00 24.3 2 Nordeste 6 Este 0 -- -- 34
2019-07-16 01:00:00 27.2 6 Nordeste 15 Nordeste 0 -- -- 30
2019-07-16 00:00:00 28.8 10 Norte 22 Norte 0 -- -- 29
2019-07-15 23:00:00 30.2 12 Norte 22 Norte 0 -- -- 27
2019-07-15 22:00:00 31.8 14 Norte 26 Norte 0 -- -- 22
2019-07-15 21:00:00 35.6 13 Noroeste 30 Noroeste 0 -- -- 17
2019-07-15 20:00:00 37 16 Noroeste 40 Noroeste 0 -- -- 16
2019-07-15 19:00:00 38.4 12 Noroeste 31 Oeste 0 -- -- 17
2019-07-15 18:00:00 37.1 17 Oeste 34 Oeste 0 -- -- 21
2019-07-15 17:00:00 36.5 19 Sudoeste 30 Oeste 0 -- -- 23
2019-07-15 16:00:00 35.3 12 Sudoeste 22 Oeste 0 -- -- 25
2019-07-15 15:00:00 34.2 13 Oeste 30 Sudoeste 0 -- -- 27
2019-07-15 14:00:00 32.8 14 Oeste 27 Oeste 0 -- -- 29
2019-07-15 13:00:00 31.4 9 Oeste 16 Sudoeste 0 -- -- 30
2019-07-15 12:00:00 29.2 4 Sur 13 Este 0 -- -- 32
2019-07-15 11:00:00 27 5 Nordeste 10 Nordeste 0 -- -- 33
2019-07-15 10:00:00 24.7 5 Norte 13 Norte 0 -- -- 38
2019-07-15 09:00:00 22.7 8 Norte 14 Nordeste 0 -- -- 43
2019-07-15 08:00:00 20.4 5 Nordeste 8 Norte 0 -- -- 54
2019-07-15 07:00:00 19.5 4 Norte 8 Norte 0 -- -- 55
2019-07-15 06:00:00 19.9 3 Nordeste 8 Norte 0 -- -- 53
2019-07-15 05:00:00 20.6 5 Nordeste 10 Nordeste 0 -- -- 49
2019-07-15 04:00:00 21.3 2 Este 9 Nordeste 0 -- -- 44
2019-07-15 03:00:00 22.7 5 Nordeste 9 Nordeste 0 -- -- 42
2019-07-15 02:00:00 24.8 3 Sudeste 21 Norte 0 -- -- 35
2019-07-15 01:00:00 26.8 13 Nordeste 26 Nordeste 0 -- -- 33
2019-07-15 00:00:00 27.5 16 Nordeste 24 Norte 0 -- -- 31
2019-07-14 23:00:00 28.8 14 Norte 29 Noroeste 0 -- -- 28
2019-07-14 22:00:00 30.2 16 Norte 28 Norte 0 -- -- 26
2019-07-14 21:00:00 32.9 9 Norte 21 Norte 0 -- -- 28
2019-07-14 20:00:00 34.5 5 Oeste 21 Sudoeste 0 -- -- 27
2019-07-14 19:00:00 34.6 14 Sudoeste 22 Sudoeste 0 -- -- 27
2019-07-14 18:00:00 33.7 9 Noroeste 26 Este 0 -- -- 28
2019-07-14 17:00:00 33.9 5 Noroeste 22 Oeste 0 -- -- 29
2019-07-14 16:00:00 33.5 8 Noroeste 24 Norte 0 -- -- 29
2019-07-14 15:00:00 32.7 10 Nordeste 27 Noroeste 0 -- -- 32
2019-07-14 14:00:00 32.5 11 Noroeste 28 Noroeste 0 -- -- 34
2019-07-14 13:00:00 30.1 7 Noroeste 24 Noroeste 0 -- -- 40
2019-07-14 12:00:00 28.6 11 Norte 26 Norte 0 -- -- 43
2019-07-14 11:00:00 26.7 15 Nordeste 28 Norte 0 -- -- 49
2019-07-14 10:00:00 25.3 8 Norte 20 Noroeste 0 -- -- 54
2019-07-14 09:00:00 23.1 6 Norte 18 Nordeste 0 -- -- 59
2019-07-14 08:00:00 19.9 2 Oeste 6 Oeste 0 -- -- 66
2019-07-14 07:00:00 19.1 3 Oeste 8 Oeste 0 -- -- 67
2019-07-14 06:00:00 20.1 4 Oeste 13 Sudoeste 0 -- -- 61
2019-07-14 05:00:00 21 6 Sudoeste 12 Sudoeste 0 -- -- 61
2019-07-14 04:00:00 21.9 8 Sudoeste 12 Sudoeste 0 -- -- 56
2019-07-14 03:00:00 23 9 Sudoeste 18 Sudoeste 0 -- -- 50
2019-07-14 02:00:00 24.3 11 Sudoeste 17 Sur 0 -- -- 43
2019-07-14 01:00:00 25.9 10 Sur 27 Oeste 0 -- -- 38
2019-07-14 00:00:00 27.6 16 Sudoeste 41 Sudoeste 0 -- -- 33
2019-07-13 23:00:00 28.8 25 Oeste 40 Oeste 0 -- -- 33
2019-07-13 22:00:00 30.2 21 Oeste 39 Oeste 0 -- -- 29
2019-07-13 21:00:00 32.8 21 Oeste 44 Sudoeste 0 -- -- 24
2019-07-13 20:00:00 35.2 31 Sudoeste 45 Sudoeste 0 -- -- 20
2019-07-13 19:00:00 35.5 14 Sudoeste 36 Sudoeste 0 -- -- 26
2019-07-13 18:00:00 36.2 21 Sudoeste 37 Sudoeste 0 -- -- 27
2019-07-13 17:00:00 35.9 19 Sudoeste 32 Sur 0 -- -- 28
2019-07-13 16:00:00 35.7 17 Sudoeste 33 Sudoeste 0 -- -- 28
2019-07-13 15:00:00 33.5 22 Sudoeste 37 Sudoeste 0 -- -- 33
2019-07-13 14:00:00 36.2 11 Sur 22 Norte 0 -- -- 26
2019-07-13 13:00:00 35.8 5 Noroeste 20 Sudoeste 0 -- -- 24
2019-07-13 12:00:00 33.6 6 Sur 18 Sudoeste 0 -- -- 29
2019-07-13 11:00:00 30.4 4 Sudeste 13 Sudoeste 0 -- -- 34
2019-07-13 10:00:00 28.3 10 Sudoeste 16 Sudoeste 0 -- -- 34
2019-07-13 09:00:00 26.6 3 Este 14 Este 0 -- -- 35
2019-07-13 08:00:00 23.6 6 Nordeste 13 Sudoeste 0 -- -- 42
2019-07-13 07:00:00 22.5 3 Noroeste 11 Noroeste 0 -- -- 41
2019-07-13 06:00:00 23.4 3 Sur 18 Sur 0 -- -- 40
2019-07-13 05:00:00 23.7 4 Este 8 Este 0 -- -- 38
2019-07-13 04:00:00 23.9 4 Nordeste 8 Este 0 -- -- 39
2019-07-13 03:00:00 24.3 3 Nordeste 7 Nordeste 0 -- -- 38
2019-07-13 02:00:00 25.8 4 Norte 8 Nordeste 0 -- -- 35
2019-07-13 01:00:00 27.2 0 Calma 8 Sudoeste 0 -- -- 36
2019-07-13 00:00:00 28.7 12 Sudoeste 21 Sudoeste 0 -- -- 30
2019-07-12 23:00:00 30.7 4 Nordeste 8 Nordeste 0 -- -- 26
2019-07-12 22:00:00 33.5 0 Calma 6 Oeste 0 -- -- 24
2019-07-12 21:00:00 36.8 4 Norte 10 Nordeste 0 -- -- 20
2019-07-12 20:00:00 38.5 0 Calma 8 Norte 0 -- -- 18
2019-07-12 19:00:00 38.9 0 Calma 12 Sudoeste 0 -- -- 18
2019-07-12 18:00:00 38.5 12 Sudoeste 22 Sur 0 -- -- 19
2019-07-12 17:00:00 39.7 12 Sur 23 Sudoeste 0 -- -- 19
2019-07-12 16:00:00 39.1 16 Sudoeste 23 Sudoeste 0 -- -- 19
2019-07-12 15:00:00 38.2 18 Sudoeste 24 Sudoeste 0 -- -- 19
2019-07-12 14:00:00 37.4 8 Oeste 18 Oeste 0 -- -- 23
2019-07-12 13:00:00 35.8 5 Sudoeste 13 Oeste 0 -- -- 25
2019-07-12 12:00:00 33.8 4 Sudoeste 10 Sudoeste 0 -- -- 27
2019-07-12 11:00:00 31.1 0 Calma 12 Nordeste 0 -- -- 31
2019-07-12 10:00:00 28.8 4 Este 10 Nordeste 0 -- -- 33
2019-07-12 09:00:00 25.5 2 Nordeste 6 Norte 0 -- -- 38
2019-07-12 08:00:00 20.2 2 Sur 4 Sur 0 -- -- 45
2019-07-12 07:00:00 20.5 3 Nordeste 7 Nordeste 0 -- -- 44
2019-07-12 06:00:00 21 4 Nordeste 9 Nordeste 0 -- -- 41
2019-07-12 05:00:00 20.6 4 Nordeste 7 Este 0 -- -- 43
2019-07-12 04:00:00 21.5 2 Sudeste 7 Este 0 -- -- 38
2019-07-12 03:00:00 23.6 5 Nordeste 10 Este 0 -- -- 34
2019-07-12 02:00:00 23.2 4 Nordeste 5 Nordeste 0 -- -- 37
2019-07-12 01:00:00 24.5 0 Calma 6 Nordeste 0 -- -- 34
2019-07-12 00:00:00 26.3 2 Nordeste 6 Norte 0 -- -- 29
2019-07-11 23:00:00 28.7 2 Norte 3 Norte 0 -- -- 28
2019-07-11 22:00:00 32.5 0 Calma 11 Oeste 0 -- -- 27
2019-07-11 21:00:00 36.8 6 Sudoeste 15 Oeste 0 -- -- 18
2019-07-11 20:00:00 38.2 9 Sur 21 Sur 0 -- -- 17
2019-07-11 19:00:00 39.1 9 Sur 22 Sudoeste 0 -- -- 17
2019-07-11 18:00:00 38.6 6 Oeste 18 Sudoeste 0 -- -- 17
2019-07-11 17:00:00 38 10 Sur 21 Oeste 0 -- -- 19
2019-07-11 16:00:00 37 12 Sudoeste 21 Sudoeste 0 -- -- 19
2019-07-11 15:00:00 36.5 9 Sur 20 Sudoeste 0 -- -- 21
2019-07-11 14:00:00 34.7 7 Sudoeste 24 Sur 0 -- -- 23
2019-07-11 13:00:00 33 7 Oeste 15 Sudoeste 0 -- -- 28
2019-07-11 12:00:00 31 5 Oeste 14 Oeste 0 -- -- 33
2019-07-11 11:00:00 29 6 Norte 10 Noroeste 0 -- -- 37
2019-07-11 10:00:00 26.6 2 Norte 6 Nordeste 0 -- -- 39
2019-07-11 09:00:00 22.4 2 Oeste 4 Oeste 0 -- -- 46
2019-07-11 08:00:00 19.4 0 Calma 7 Este 0 -- -- 52
2019-07-11 07:00:00 17 2 Este 6 Nordeste 0 -- -- 52
2019-07-11 06:00:00 18.5 4 Este 10 Nordeste 0 -- -- 45
2019-07-11 05:00:00 19.4 5 Nordeste 10 Nordeste 0 -- -- 47
2019-07-11 04:00:00 18.9 6 Este 10 Este 0 -- -- 47
2019-07-11 03:00:00 20.3 5 Nordeste 10 Este 0 -- -- 42
2019-07-11 02:00:00 20.2 3 Nordeste 5 Nordeste 0 -- -- 40
2019-07-11 01:00:00 22.1 2 Nordeste 4 Nordeste 0 -- -- 40
2019-07-11 00:00:00 23.8 2 Nordeste 5 Este 0 -- -- 40
2019-07-10 23:00:00 25.8 3 Sudoeste 6 Oeste 0 -- -- 34
2019-07-10 22:00:00 29.1 3 Sudeste 11 Sudoeste 0 -- -- 28
2019-07-10 21:00:00 32.4 7 Sudoeste 16 Sudoeste 0 -- -- 24
2019-07-10 20:00:00 33.6 8 Sudoeste 20 Sur 0 -- -- 22
2019-07-10 19:00:00 34 11 Sudoeste 19 Oeste 0 -- -- 22
2019-07-10 18:00:00 33.7 8 Oeste 17 Oeste 0 -- -- 22
2019-07-10 17:00:00 33.2 8 Oeste 19 Oeste 0 -- -- 22
2019-07-10 16:00:00 31.9 7 Nordeste 18 Este 0 -- -- 23
2019-07-10 15:00:00 31 6 Sudeste 17 Sudoeste 0 -- -- 23
2019-07-10 14:00:00 30.1 8 Oeste 17 Oeste 0 -- -- 30
2019-07-10 13:00:00 28.5 4 Norte 15 Nordeste 0 -- -- 33
2019-07-10 12:00:00 26.5 5 Nordeste 21 Norte 0 -- -- 37
2019-07-10 11:00:00 24.4 11 Norte 28 Norte 0 -- -- 43
2019-07-10 10:00:00 22.5 16 Nordeste 29 Nordeste 0 -- -- 48
2019-07-10 09:00:00 20.3 10 Norte 18 Norte 0 -- -- 50
2019-07-10 08:00:00 18.7 6 Norte 14 Norte 0 -- -- 55
2019-07-10 07:00:00 17.2 6 Norte 11 Norte 0 -- -- 59
2019-07-10 06:00:00 17.9 7 Norte 15 Norte 0 -- -- 58
2019-07-10 05:00:00 18.6 8 Nordeste 19 Norte 0 -- -- 58
2019-07-10 04:00:00 19.3 9 Norte 20 Nordeste 0 -- -- 57
2019-07-10 03:00:00 19.9 7 Nordeste 15 Nordeste 0 -- -- 55
2019-07-10 02:00:00 20.5 6 Nordeste 10 Nordeste 0 -- -- 53
2019-07-10 01:00:00 21.5 5 Norte 8 Norte 0 -- -- 50
2019-07-10 00:00:00 22.6 4 Nordeste 12 Nordeste 0 -- -- 47
2019-07-09 23:00:00 23.8 7 Nordeste 22 Nordeste 0 -- -- 44
2019-07-09 22:00:00 25 14 Nordeste 29 Norte 0 -- -- 41
2019-07-09 21:00:00 26.4 14 Nordeste 29 Nordeste 0 -- -- 38
2019-07-09 20:00:00 27.6 17 Nordeste 33 Norte 0 -- -- 37
2019-07-09 19:00:00 28 19 Nordeste 35 Nordeste 0 -- -- 37
2019-07-09 18:00:00 30.9 10 Norte 20 Norte 0 -- -- 27
2019-07-09 17:00:00 30.4 4 Sudoeste 17 Sudeste 0 -- -- 26
2019-07-09 16:00:00 31.3 9 Noroeste 19 Noroeste 0 -- -- 26
2019-07-09 15:00:00 29.6 8 Sur 22 Sudoeste 0 -- -- 29
2019-07-09 14:00:00 28.3 11 Sudoeste 26 Sur 0 -- -- 30
2019-07-09 13:00:00 26.9 9 Sudoeste 22 Sudoeste 0 -- -- 35
2019-07-09 12:00:00 25.9 5 Norte 18 Sur 0 -- -- 40
2019-07-09 11:00:00 24 6 Norte 10 Noroeste 0 -- -- 44
2019-07-09 10:00:00 22.5 4 Noroeste 13 Este 0 -- -- 48
2019-07-09 09:00:00 20.9 5 Nordeste 9 Nordeste 0 -- -- 55
2019-07-09 08:00:00 17.4 0 Calma 6 Sudoeste 0 -- -- 66
2019-07-09 07:00:00 16.8 2 Sudoeste 9 Nordeste 0 -- -- 65
2019-07-09 06:00:00 18.3 6 Nordeste 11 Norte 0 -- -- 64
2019-07-09 05:00:00 19.7 5 Noroeste 13 Norte 0 -- -- 58
2019-07-09 04:00:00 20.1 3 Norte 10 Norte 0 -- -- 57
2019-07-09 03:00:00 19.8 2 Noroeste 12 Nordeste 0 -- -- 56
2019-07-09 02:00:00 20.8 3 Norte 18 Norte 0 -- -- 54
2019-07-09 01:00:00 21.3 11 Norte 19 Norte 0 -- -- 47
2019-07-09 00:00:00 22 7 Oeste 26 Noroeste 0 -- -- 45
2019-07-08 23:00:00 23.4 15 Noroeste 43 Oeste 0 -- -- 41
2019-07-08 22:00:00 26.4 25 Oeste 43 Oeste 0 -- -- 31
2019-07-08 21:00:00 27.9 22 Oeste 35 Sudoeste 0 -- -- 28
2019-07-08 20:00:00 30.2 16 Oeste 29 Sudoeste 0 -- -- 26
2019-07-08 19:00:00 29.2 22 Sudoeste 30 Oeste 0 -- -- 30
2019-07-08 18:00:00 31.3 17 Oeste 31 Sudoeste 0 -- -- 27
2019-07-08 17:00:00 31.8 17 Sudoeste 35 Sudoeste 0 -- -- 25
2019-07-08 16:00:00 31.4 17 Sur 31 Sur 0 -- -- 25
2019-07-08 15:00:00 30.7 12 Sudoeste 31 Sudoeste 0 -- -- 29
2019-07-08 14:00:00 29.5 16 Oeste 31 Oeste 0 -- -- 31
2019-07-08 13:00:00 29.2 13 Sur 23 Sur 0 -- -- 33
2019-07-08 12:00:00 27.4 13 Sudoeste 22 Sur 0 -- -- 37
2019-07-08 11:00:00 24.7 10 Sudoeste 19 Sudoeste 0 -- -- 44
2019-07-08 10:00:00 21.8 10 Sudoeste 21 Sudoeste 0 -- -- 51
2019-07-08 09:00:00 21.4 10 Sudoeste 16 Sudoeste 0 -- -- 51
2019-07-08 08:00:00 19.2 5 Oeste 11 Sur 0 -- -- 58
2019-07-08 07:00:00 18.5 8 Sur 17 Sudeste 0 -- -- 56
2019-07-08 06:00:00 18.7 6 Sudeste 10 Sur 0 -- -- 50
2019-07-08 05:00:00 20.1 7 Sur 13 Sudoeste 0 -- -- 50
2019-07-08 04:00:00 21.9 6 Sur 16 Sudoeste 0 -- -- 43
2019-07-08 03:00:00 23.6 12 Sudoeste 24 Sudoeste 0 -- -- 35
2019-07-08 02:00:00 24.8 12 Sudoeste 17 Sudoeste 0 -- -- 33
2019-07-08 01:00:00 25.6 7 Sudoeste 15 Sudoeste 0 -- -- 30
2019-07-08 00:00:00 25.3 5 Sudoeste 9 Sudoeste 0 -- -- 31
2019-07-07 23:00:00 27.9 3 Sur 14 Norte 0 -- -- 27
2019-07-07 22:00:00 30.8 5 Norte 14 Norte 0 -- -- 24
2019-07-07 21:00:00 33.6 9 Norte 18 Norte 0 -- -- 21
2019-07-07 20:00:00 35.5 4 Norte 18 Oeste 0 -- -- 21
2019-07-07 19:00:00 35.8 6 Noroeste 25 Sudoeste 0 -- -- 21
2019-07-07 18:00:00 35.1 18 Sudoeste 30 Oeste 0 -- -- 21
2019-07-07 17:00:00 34.7 17 Oeste 32 Oeste 0 -- -- 21
2019-07-07 16:00:00 33.8 18 Sudoeste 31 Sudoeste 0 -- -- 22
2019-07-07 15:00:00 33.1 18 Sudoeste 27 Oeste 0 -- -- 22
2019-07-07 14:00:00 32.2 12 Oeste 24 Sudoeste 0 -- -- 25
2019-07-07 13:00:00 30.9 8 Sudoeste 17 Oeste 0 -- -- 28
2019-07-07 12:00:00 28.4 9 Oeste 15 Oeste 0 -- -- 30
2019-07-07 11:00:00 26 8 Sudoeste 13 Sudoeste 0 -- -- 36
2019-07-07 10:00:00 23.9 9 Sudoeste 13 Oeste 0 -- -- 40
2019-07-07 09:00:00 22.4 5 Sur 8 Sudoeste 0 -- -- 42
2019-07-07 08:00:00 18.6 3 Sudoeste 6 Sudoeste 0 -- -- 47
2019-07-07 07:00:00 16.4 2 Sudoeste 7 Sur 0 -- -- 48
2019-07-07 06:00:00 17.3 3 Sur 5 Sur 0 -- -- 45
2019-07-07 05:00:00 18.8 2 Oeste 5 Sudoeste 0 -- -- 47
2019-07-07 04:00:00 19.8 3 Sudeste 10 Sudoeste 0 -- -- 44
2019-07-07 03:00:00 21 0 Calma 7 Oeste 0 -- -- 45
2019-07-07 02:00:00 21.7 0 Calma 5 Oeste 0 -- -- 44
2019-07-07 01:00:00 23.9 3 Sur 7 Sudoeste 0 -- -- 32
2019-07-07 00:00:00 25.8 6 Sur 13 Sur 0 -- -- 29
2019-07-06 23:00:00 28.1 0 Calma 17 Oeste 0 -- -- 26
2019-07-06 22:00:00 30.9 8 Oeste 30 Sudoeste 0 -- -- 22
2019-07-06 21:00:00 33.2 23 Sudoeste 36 Oeste 0 -- -- 17
2019-07-06 20:00:00 34.4 23 Sudoeste 37 Sudoeste 0 -- -- 15
2019-07-06 19:00:00 35.9 17 Sudoeste 39 Sudoeste 0 -- -- 16
2019-07-06 18:00:00 35.6 15 Sudoeste 34 Sur 0 -- -- 17
2019-07-06 17:00:00 35.5 19 Sudoeste 40 Sudoeste 0 -- -- 17
2019-07-06 16:00:00 34.8 15 Sur 32 Sudoeste 0 -- -- 18
2019-07-06 15:00:00 34.1 18 Sur 31 Sur 0 -- -- 20
2019-07-06 14:00:00 32.9 12 Sur 27 Sudoeste 0 -- -- 21
2019-07-06 13:00:00 31.5 16 Sudoeste 29 Sur 0 -- -- 22
2019-07-06 12:00:00 30.1 14 Sudoeste 23 Sudoeste 0 -- -- 27
2019-07-06 11:00:00 27.2 7 Sudoeste 15 Sudoeste 0 -- -- 31
2019-07-06 10:00:00 24.6 9 Sudoeste 14 Sudoeste 0 -- -- 35
2019-07-06 09:00:00 21.9 0 Calma 4 Noroeste 0 -- -- 40
2019-07-06 08:00:00 18 0 Calma 3 Sudoeste 0 -- -- 54
2019-07-06 07:00:00 15.8 2 Nordeste 5 Sudoeste 0 -- -- 55
2019-07-06 06:00:00 16.7 2 Sudeste 4 Sur 0 -- -- 50
2019-07-06 05:00:00 18.9 3 Noroeste 7 Noroeste 0 -- -- 49
2019-07-06 04:00:00 19.2 5 Noroeste 7 Noroeste 0 -- -- 47
2019-07-06 03:00:00 20.1 0 Calma 6 Noroeste 0 -- -- 45
2019-07-06 02:00:00 20.8 3 Oeste 5 Oeste 0 -- -- 36
2019-07-06 01:00:00 22.9 0 Calma 6 Sudeste 0 -- -- 33
2019-07-06 00:00:00 24.7 3 Sudeste 8 Sur 0 -- -- 29
2019-07-05 23:00:00 27 5 Sur 10 Oeste 0 -- -- 27
2019-07-05 22:00:00 29.9 7 Oeste 24 Oeste 0 -- -- 24
2019-07-05 21:00:00 33.1 15 Oeste 30 Oeste 0 -- -- 22
2019-07-05 20:00:00 34.5 16 Sudoeste 31 Sudoeste 0 -- -- 20
2019-07-05 19:00:00 35.4 18 Sudoeste 36 Sudoeste 0 -- -- 20
2019-07-05 18:00:00 34.8 12 Sudoeste 32 Sudoeste 0 -- -- 22
2019-07-05 17:00:00 34.4 22 Sudoeste 33 Sudoeste 0 -- -- 25
2019-07-05 16:00:00 33.4 17 Sudoeste 37 Sudoeste 0 -- -- 26
2019-07-05 15:00:00 32.9 20 Sudoeste 34 Sudoeste 0 -- -- 27
2019-07-05 14:00:00 31.8 19 Sudoeste 32 Sudoeste 0 -- -- 26
2019-07-05 13:00:00 30.5 19 Sudoeste 29 Oeste 0 -- -- 32
2019-07-05 12:00:00 28.9 8 Sudoeste 17 Sudoeste 0 -- -- 36
2019-07-05 11:00:00 27.3 5 Sur 17 Sur 0 -- -- 36
2019-07-05 10:00:00 25.7 8 Sur 16 Sudoeste 0 -- -- 38
2019-07-05 09:00:00 23.8 6 Sudoeste 10 Sudoeste 0 -- -- 47
2019-07-05 08:00:00 21.7 2 Sudoeste 5 Sudoeste 0 -- -- 52
2019-07-05 07:00:00 21.2 0 Calma 4 Sur 0 -- -- 53
2019-07-05 06:00:00 22.1 0 Calma 8 Sudeste 0 -- -- 49
2019-07-05 05:00:00 23.4 4 Sudeste 14 Sudeste 0 -- -- 47
2019-07-05 04:00:00 24.3 8 Sudeste 21 Sudeste 0 -- -- 47
2019-07-05 03:00:00 24.9 12 Sudeste 26 Sudeste 0 -- -- 45
2019-07-05 02:00:00 26 9 Sur 24 Sur 0 -- -- 44
2019-07-05 01:00:00 27.2 14 Sur 37 Sur 0 -- -- 41
2019-07-05 00:00:00 29 18 Sudeste 33 Sudeste 0 -- -- 38
2019-07-04 23:00:00 30.7 18 Sur 35 Sur 0 -- -- 30
2019-07-04 22:00:00 31.6 11 Sur 19 Sur 0 -- -- 26
2019-07-04 21:00:00 33.1 13 Sur 31 Sur 0 -- -- 24
2019-07-04 20:00:00 35.2 17 Sur 32 Sur 0 -- -- 20
2019-07-04 19:00:00 35.5 13 Sur 31 Sudoeste 0 -- -- 21
2019-07-04 18:00:00 35.7 10 Sudeste 38 Este 0 -- -- 22
2019-07-04 17:00:00 35.2 15 Sudeste 34 Sudeste 0 -- -- 23
2019-07-04 16:00:00 33.9 15 Sudeste 28 Sudeste 0 -- -- 25
2019-07-04 15:00:00 34.1 12 Sudeste 34 Sur 0 -- -- 24
2019-07-04 14:00:00 33 14 Sudeste 32 Sudeste 0 -- -- 25
2019-07-04 13:00:00 32.3 18 Sudeste 32 Sur 0 -- -- 27
2019-07-04 12:00:00 30.6 14 Sudeste 25 Este 0 -- -- 31
2019-07-04 11:00:00 28.3 10 Sudeste 18 Este 0 -- -- 35
2019-07-04 10:00:00 26.3 11 Sudeste 22 Sudeste 0 -- -- 40
2019-07-04 09:00:00 24.6 11 Este 21 Sudeste 0 -- -- 44
2019-07-04 08:00:00 22.9 7 Nordeste 14 Este 0 -- -- 50
2019-07-04 07:00:00 22.2 5 Este 14 Este 0 -- -- 49
2019-07-04 06:00:00 22.8 3 Sur 15 Sudeste 0 -- -- 48
2019-07-04 05:00:00 23.7 5 Sur 16 Sudeste 0 -- -- 47
2019-07-04 04:00:00 24.7 6 Sudoeste 32 Sudeste 0 -- -- 44
2019-07-04 03:00:00 25.3 22 Sudeste 38 Sudeste 0 -- -- 42
2019-07-04 02:00:00 26.3 27 Sudeste 44 Sudeste 0 -- -- 39
2019-07-04 01:00:00 27.5 27 Sudeste 50 Sudeste 0 -- -- 36
2019-07-04 00:00:00 29.2 31 Sudeste 50 Sudeste 0 -- -- 33
2019-07-03 23:00:00 30.8 22 Sudeste 39 Sudeste 0 -- -- 22
2019-07-03 22:00:00 32.1 12 Sudeste 22 Sudeste 0 -- -- 20
2019-07-03 21:00:00 34 16 Sudeste 29 Este 0 -- -- 19
2019-07-03 20:00:00 35.8 12 Sur 32 Sudeste 0 -- -- 17
2019-07-03 19:00:00 37.1 21 Sudeste 38 Sudeste 0 -- -- 16
2019-07-03 18:00:00 36.4 22 Sudeste 42 Sudeste 0 -- -- 17
2019-07-03 17:00:00 36.8 24 Sudeste 38 Sudeste 0 -- -- 18
2019-07-03 16:00:00 36.1 18 Sudeste 41 Sudeste 0 -- -- 20
2019-07-03 15:00:00 35.1 19 Sur 32 Sur 0 -- -- 25
2019-07-03 14:00:00 34.3 13 Sudeste 33 Sudeste 0 -- -- 29
2019-07-03 13:00:00 32.9 16 Sudeste 28 Este 0 -- -- 30
2019-07-03 12:00:00 30.6 14 Sur 23 Sur 0 -- -- 34
2019-07-03 11:00:00 28.5 10 Este 28 Sudeste 0 -- -- 39
2019-07-03 10:00:00 26.5 18 Sudeste 30 Este 0 -- -- 44
2019-07-03 09:00:00 24.9 15 Este 31 Este 0 -- -- 45
2019-07-03 08:00:00 23.8 9 Este 21 Este 0 -- -- 43
2019-07-03 07:00:00 23.1 8 Nordeste 19 Nordeste 0 -- -- 45
2019-07-03 06:00:00 23.5 5 Nordeste 22 Nordeste 0 -- -- 45
2019-07-03 05:00:00 24.1 12 Este 23 Este 0 -- -- 43
2019-07-03 04:00:00 25.1 9 Norte 25 Este 0 -- -- 47
2019-07-03 03:00:00 26.1 19 Sudeste 37 Sudeste 0 -- -- 43
2019-07-03 02:00:00 27 16 Este 32 Norte 0 -- -- 42
2019-07-03 01:00:00 28.9 18 Este 35 Sur 0 -- -- 39
2019-07-03 00:00:00 30.1 15 Sur 41 Sudeste 0 -- -- 36
2019-07-02 23:00:00 30.6 5 Sur 12 Este 0 -- -- 29
2019-07-02 22:00:00 31.9 6 Sudeste 12 Sudoeste 0 -- -- 26
2019-07-02 21:00:00 33.6 9 Sudoeste 19 Oeste 0 -- -- 24
2019-07-02 20:00:00 35.5 13 Oeste 20 Sudoeste 0 -- -- 22
2019-07-02 19:00:00 35.3 14 Oeste 24 Sudoeste 0 -- -- 25
2019-07-02 18:00:00 36.5 10 Sudoeste 23 Sur 0 -- -- 24
2019-07-02 17:00:00 35.8 12 Sudoeste 22 Sudoeste 0 -- -- 25
2019-07-02 16:00:00 34.7 13 Oeste 30 Oeste 0 -- -- 26
2019-07-02 15:00:00 34.1 9 Oeste 18 Sudeste 0 -- -- 28
2019-07-02 14:00:00 33.8 12 Sudeste 26 Sur 0 -- -- 28
2019-07-02 13:00:00 32.2 8 Sudeste 19 Sudeste 0 -- -- 32
2019-07-02 12:00:00 30.1 6 Sur 13 Norte 0 -- -- 36
2019-07-02 11:00:00 28.6 5 Nordeste 15 Norte 0 -- -- 38
2019-07-02 10:00:00 26.6 6 Nordeste 12 Norte 0 -- -- 42
2019-07-02 09:00:00 24.4 4 Norte 7 Norte 0 -- -- 45
2019-07-02 08:00:00 21.5 2 Nordeste 10 Este 0 -- -- 53
2019-07-02 07:00:00 20.2 3 Nordeste 9 Nordeste 0 -- -- 57
2019-07-02 06:00:00 20.2 3 Nordeste 6 Este 0 -- -- 54
2019-07-02 05:00:00 21.8 4 Nordeste 9 Nordeste 0 -- -- 49
2019-07-02 04:00:00 22.6 7 Nordeste 18 Nordeste -- -- -- 48
2019-07-02 03:00:00 22.5 2 Norte 10 Nordeste 0 -- -- 48
2019-07-02 02:00:00 23.7 3 Noroeste 10 Noroeste 0 -- -- 48
2019-07-02 01:00:00 24.9 2 Sudoeste 15 Nordeste 0 -- -- 45
2019-07-02 00:00:00 25.3 11 Norte 27 Norte 0 -- -- 45
2019-07-01 23:00:00 25.6 16 Nordeste 35 Norte 0 -- -- 44
2019-07-01 22:00:00 27.1 24 Norte 45 Norte 0 -- -- 39
2019-07-01 21:00:00 33.4 14 Oeste 29 Oeste 0 -- -- 23
2019-07-01 20:00:00 35.7 17 Oeste 35 Oeste 0 -- -- 23
2019-07-01 19:00:00 36.5 22 Oeste 35 Sudoeste 0 -- -- 23
2019-07-01 18:00:00 36.2 15 Sur 34 Sudoeste 0 -- -- 23
2019-07-01 17:00:00 36.9 14 Sur 30 Sudoeste 0 -- -- 22
2019-07-01 16:00:00 36.5 20 Sudoeste 31 Sudoeste 0 -- -- 23
2019-07-01 15:00:00 36.5 15 Sur 28 Sur 0 -- -- 25
2019-07-01 14:00:00 34.9 6 Sudoeste 18 Sudoeste 0 -- -- 27
2019-07-01 13:00:00 32.8 7 Sudoeste 18 Sudoeste 0 -- -- 28
2019-07-01 12:00:00 31.5 2 Norte 11 Norte 0 -- -- 31
2019-07-01 11:00:00 30 3 Norte 9 Sur 0 -- -- 38
2019-07-01 10:00:00 26.9 4 Sudoeste 9 Sudoeste 0 -- -- 43
2019-07-01 09:00:00 25.5 0 Calma 7 Nordeste 0 -- -- 45
2019-07-01 08:00:00 22.8 0 Calma 4 Sudeste 0 -- -- 51
2019-07-01 07:00:00 21.4 0 Calma 4 Norte 0 -- -- 51
2019-07-01 06:00:00 22.6 2 Noroeste 5 Norte 0 -- -- 48
2019-07-01 05:00:00 24 3 Sur 7 Sur 0 -- -- 40
2019-07-01 04:00:00 25.7 3 Sur 15 Sur 0 -- -- 37
2019-07-01 03:00:00 27.5 10 Sur 26 Este 0 -- -- 27
2019-07-01 02:00:00 28.5 0 Calma 19 Sudeste 0 -- -- 24
2019-07-01 01:00:00 30.4 13 Sudeste 22 Sudeste 0 -- -- 21
2019-07-01 00:00:00 31.7 12 Sudeste 29 Sudeste 0 -- -- 22
2019-06-30 23:00:00 31.2 4 Sur 18 Sudoeste 0 -- -- 27
2019-06-30 22:00:00 33.8 6 Sudoeste 12 Sudoeste 0 -- -- 26
2019-06-30 21:00:00 37.1 10 Oeste 21 Sudoeste 0 -- -- 23
2019-06-30 20:00:00 38.8 14 Sudoeste 27 Sur 0 -- -- 19
2019-06-30 19:00:00 40.5 8 Sur 30 Oeste 0 -- -- 16
2019-06-30 18:00:00 39.4 17 Oeste 29 Oeste 0 -- -- 18
2019-06-30 17:00:00 38.4 20 Oeste 34 Oeste 0 -- -- 19
2019-06-30 16:00:00 38.1 15 Oeste 32 Oeste 0 -- -- 20
2019-06-30 15:00:00 37.4 16 Sudoeste 32 Sudoeste 0 -- -- 22
2019-06-30 14:00:00 36.1 16 Sudoeste 24 Sudoeste 0 -- -- 21
2019-06-30 13:00:00 34.6 15 Sudoeste 23 Sudoeste 0 -- -- 23
2019-06-30 12:00:00 34 14 Sudoeste 20 Sudoeste 0 -- -- 22
2019-06-30 11:00:00 30.8 9 Sudoeste 17 Oeste 0 -- -- 29
2019-06-30 10:00:00 28.3 6 Oeste 14 Sudoeste 0 -- -- 32
2019-06-30 09:00:00 26.9 4 Sudoeste 11 Sudoeste 0 -- -- 30
2019-06-30 08:00:00 23.7 0 Calma 7 Nordeste 0 -- -- 33
2019-06-30 07:00:00 24.1 5 Nordeste 12 Nordeste 0 -- -- 29
2019-06-30 06:00:00 25.8 6 Nordeste 23 Este 0 -- -- 27
2019-06-30 05:00:00 27.7 5 Norte 22 Este 0 -- -- 24
2019-06-30 04:00:00 28.8 12 Este 22 Noroeste 0 -- -- 23
2019-06-30 03:00:00 29.6 5 Nordeste 29 Este 0 -- -- 21
2019-06-30 02:00:00 30.8 14 Sudeste 36 Sudeste 0 -- -- 21
2019-06-30 01:00:00 32.2 22 Sudeste 42 Sudeste 0 -- -- 19
2019-06-30 00:00:00 32.4 20 Sudeste 30 Sudeste 0 -- -- 18
2019-06-29 23:00:00 30.3 3 Norte 8 Este 0 -- -- 18
2019-06-29 22:00:00 34.6 3 Este 13 Sudeste 0 -- -- 14
2019-06-29 21:00:00 39 10 Sudeste 21 Sudeste 0 -- -- 11
2019-06-29 20:00:00 40.8 13 Sudeste 24 Sudeste 0 -- -- 10
2019-06-29 19:00:00 42.3 13 Sudeste 24 Sur 0 -- -- 12
2019-06-29 18:00:00 41.4 9 Sur 19 Oeste 0 -- -- 16
2019-06-29 17:00:00 40.8 7 Noroeste 19 Sudoeste 0 -- -- 18
2019-06-29 16:00:00 39.9 12 Oeste 21 Oeste 0 -- -- 18
2019-06-29 15:00:00 39.3 9 Sudoeste 23 Sudoeste 0 -- -- 20
2019-06-29 14:00:00 37.9 8 Sur 21 Sur 0 -- -- 21
2019-06-29 13:00:00 36 4 Noroeste 15 Sur 0 -- -- 24
2019-06-29 12:00:00 34.4 6 Sudeste 14 Sudeste 0 -- -- 24
2019-06-29 11:00:00 31.6 4 Nordeste 14 Nordeste 0 -- -- 27
2019-06-29 10:00:00 29.7 6 Nordeste 14 Este 0 -- -- 27
2019-06-29 09:00:00 27.5 6 Nordeste 11 Nordeste 0 -- -- 26
2019-06-29 08:00:00 24.6 5 Norte 15 Norte 0 -- -- 29
2019-06-29 07:00:00 25.2 3 Norte 21 Nordeste 0 -- -- 29
2019-06-29 06:00:00 24.4 9 Nordeste 18 Este 0 -- -- 34
2019-06-29 05:00:00 24.3 5 Noroeste 20 Este 0 -- -- 26
2019-06-29 04:00:00 26.4 5 Nordeste 20 Este 0 -- -- 22
2019-06-29 03:00:00 28.2 8 Nordeste 17 Nordeste 0 -- -- 22
2019-06-29 02:00:00 29 6 Este 14 Este 0 -- -- 20
2019-06-29 01:00:00 30.6 5 Noroeste 30 Sudeste 0 -- -- 20
2019-06-29 00:00:00 32.2 18 Sudeste 33 Este 0 -- -- 17
2019-06-28 23:00:00 34.1 21 Sudeste 36 Sudeste 0 -- -- 16
2019-06-28 22:00:00 35.6 20 Sudeste 37 Sudeste 0 -- -- 15
2019-06-28 21:00:00 37.9 24 Sudeste 40 Sudeste 0 -- -- 14
2019-06-28 20:00:00 40 24 Sudeste 36 Sur 0 -- -- 14
2019-06-28 19:00:00 41.2 23 Sudeste 41 Sudeste 0 -- -- 14
2019-06-28 18:00:00 41.7 24 Sudeste 40 Sudeste 0 -- -- 14
2019-06-28 17:00:00 41.5 25 Sudeste 41 Sur 0 -- -- 15
2019-06-28 16:00:00 41.1 19 Sudeste 38 Sudeste 0 -- -- 15
2019-06-28 15:00:00 40.2 21 Sudeste 40 Sudeste 0 -- -- 17
2019-06-28 14:00:00 38 19 Este 39 Este 0 -- -- 20
2019-06-28 13:00:00 36 12 Este 26 Este 0 -- -- 23
2019-06-28 12:00:00 34.1 7 Nordeste 18 Este 0 -- -- 25
2019-06-28 11:00:00 31.3 8 Nordeste 22 Este 0 -- -- 32
2019-06-28 10:00:00 29.2 12 Nordeste 20 Este 0 -- -- 36
2019-06-28 09:00:00 26.6 8 Norte 13 Norte 0 -- -- 39
2019-06-28 08:00:00 21.6 0 Calma 6 Nordeste 0 -- -- 51
2019-06-28 07:00:00 22.1 4 Nordeste 10 Nordeste 0 -- -- 48
2019-06-28 06:00:00 22.8 4 Nordeste 9 Norte 0 -- -- 46
2019-06-28 05:00:00 24.3 6 Sudeste 10 Sudeste 0 -- -- 42
2019-06-28 04:00:00 25.7 3 Norte 13 Este 0 -- -- 40
2019-06-28 03:00:00 26.8 5 Oeste 35 Este 0 -- -- 39
2019-06-28 02:00:00 28.4 19 Sudeste 33 Sudeste 0 -- -- 37
2019-06-28 01:00:00 29.1 17 Sudeste 45 Sudeste 0 -- -- 35
2019-06-28 00:00:00 30.4 31 Sudeste 50 Sudeste 0 -- -- 33
2019-06-27 23:00:00 31.9 32 Sudeste 51 Sudeste 0 -- -- 31
2019-06-27 22:00:00 33.4 28 Sudeste 51 Sudeste 0 -- -- 28
2019-06-27 21:00:00 35.6 30 Sudeste 50 Sudeste 0 -- -- 26
2019-06-27 20:00:00 37.5 31 Sudeste 51 Sudeste 0 -- -- 24
2019-06-27 19:00:00 40.5 29 Sudeste 47 Sudeste 0 -- -- 20
2019-06-27 18:00:00 40.7 30 Sudeste 49 Sudeste 0 -- -- 18
2019-06-27 17:00:00 40.4 25 Sudeste 50 Sur 0 -- -- 18
2019-06-27 16:00:00 39.2 23 Sur 42 Sudeste 0 -- -- 21
2019-06-27 15:00:00 37.7 27 Sur 48 Sur 0 -- -- 23
2019-06-27 14:00:00 35.6 26 Sudeste 53 Sudeste 0 -- -- 26
2019-06-27 13:00:00 34.2 33 Sur 49 Sudeste 0 -- -- 27
2019-06-27 12:00:00 32.3 26 Sur 45 Sur 0 -- -- 28
2019-06-27 11:00:00 31 14 Sur 25 Este 0 -- -- 29
2019-06-27 10:00:00 29 5 Norte 9 Norte 0 -- -- 33
2019-06-27 09:00:00 26.6 2 Oeste 13 Este 0 -- -- 39
2019-06-27 08:00:00 23.6 10 Este 15 Este 0 -- -- 46
2019-06-27 07:00:00 22.3 3 Nordeste 7 Nordeste 0 -- -- 50
2019-06-27 06:00:00 24.2 4 Norte 26 Sudeste 0 -- -- 46
2019-06-27 05:00:00 24.9 12 Sudeste 30 Sudeste 0 -- -- 45
2019-06-27 04:00:00 25.3 13 Sudeste 27 Sudeste 0 -- -- 47
2019-06-27 03:00:00 26.3 18 Sudeste 39 Sudeste 0 -- -- 49
2019-06-27 02:00:00 27.5 24 Sudeste 39 Sudeste 0 -- -- 45
2019-06-27 01:00:00 28.4 21 Sudeste 44 Sudeste 0 -- -- 42
2019-06-27 00:00:00 29.7 29 Sudeste 45 Sudeste 0 -- -- 38
2019-06-26 23:00:00 31.6 22 Sudeste 36 Sudeste 0 -- -- 38
2019-06-26 22:00:00 33.5 13 Sudeste 27 Sudeste 0 -- -- 35
2019-06-26 21:00:00 35.3 18 Sudeste 32 Sur 0 -- -- 31
2019-06-26 20:00:00 36.4 19 Sudeste 30 Sur 0 -- -- 27
2019-06-26 19:00:00 37.1 18 Sur 32 Sudeste 0 -- -- 25
2019-06-26 18:00:00 36.4 19 Sur 34 Sudoeste 0 -- -- 27
2019-06-26 17:00:00 36.9 15 Sudeste 30 Sudeste 0 -- -- 27
2019-06-26 16:00:00 35.5 16 Sur 33 Sudeste 0 -- -- 28
2019-06-26 15:00:00 34.6 14 Sur 28 Sudeste 0 -- -- 31
2019-06-26 14:00:00 33.7 14 Sur 23 Sudeste 0 -- -- 32
2019-06-26 13:00:00 31.8 9 Sur 17 Sur 0 -- -- 34
2019-06-26 12:00:00 30 5 Sur 14 Sur 0 -- -- 41
2019-06-26 11:00:00 28.1 5 Oeste 13 Oeste 0 -- -- 46
2019-06-26 10:00:00 26 5 Sur 12 Sur 0 -- -- 52
2019-06-26 09:00:00 24.8 6 Sudeste 13 Este 0 -- -- 56
2019-06-26 08:00:00 22.7 0 Calma 6 Sur 0 -- -- 65
2019-06-26 07:00:00 21.5 4 Sur 13 Sur 0 -- -- 66
2019-06-26 06:00:00 22.3 7 Sudeste 18 Sudeste 0 -- -- 65
2019-06-26 05:00:00 23.6 5 Este 25 Sudeste 0 -- -- 61
2019-06-26 04:00:00 24.5 12 Sudeste 32 Sudeste 0 -- -- 58
2019-06-26 03:00:00 25.5 22 Sudeste 34 Sudeste 0 -- -- 55
2019-06-26 02:00:00 27.2 17 Sudeste 33 Sudeste 0 -- -- 50
2019-06-26 01:00:00 28.7 10 Sudeste 30 Sudeste 0 -- -- 46
2019-06-26 00:00:00 27.8 10 Sudeste 18 Sudeste 0 -- -- 32
2019-06-25 23:00:00 28.5 4 Este 6 Sudeste 0 -- -- 34
2019-06-25 22:00:00 31.8 4 Oeste 14 Sur 0 -- -- 30
2019-06-25 21:00:00 34.9 9 Sudoeste 26 Sur 0 -- -- 26
2019-06-25 20:00:00 36.1 16 Sur 31 Sur 0 -- -- 23
2019-06-25 19:00:00 37.1 14 Sur 46 Sudoeste 0 -- -- 22
2019-06-25 18:00:00 36.4 13 Sur 28 Sudeste 0 -- -- 23
2019-06-25 17:00:00 35.2 13 Sudoeste 37 Sudoeste 0 -- -- 24
2019-06-25 16:00:00 34.1 10 Sudoeste 30 Sudoeste 0 -- -- 27
2019-06-25 15:00:00 32.9 13 Sudoeste 28 Oeste 0 -- -- 31
2019-06-25 14:00:00 31.5 18 Oeste 30 Sudoeste 0 -- -- 33
2019-06-25 13:00:00 29.4 8 Oeste 16 Sudoeste 0 -- -- 40
2019-06-25 12:00:00 28.4 5 Sur 13 Sudoeste 0 -- -- 43
2019-06-25 11:00:00 24.9 6 Oeste 11 Oeste 0 -- -- 51
2019-06-25 10:00:00 22.9 5 Sudoeste 10 Oeste 0 -- -- 57
2019-06-25 09:00:00 20.9 2 Sudoeste 6 Sudeste 0 -- -- 61
2019-06-25 08:00:00 18.9 3 Sudeste 6 Este 0 -- -- 66
2019-06-25 07:00:00 18.1 3 Sur 5 Sudoeste 0 -- -- 65
2019-06-25 06:00:00 19.4 3 Sur 5 Sur 0 -- -- 62
2019-06-25 05:00:00 20.4 3 Sudoeste 12 Sudoeste 0 -- -- 60
2019-06-25 04:00:00 21.6 7 Sudoeste 14 Sudoeste 0 -- -- 58
2019-06-25 03:00:00 22.3 11 Sudoeste 18 Sudoeste 0 -- -- 55
2019-06-25 02:00:00 22.7 10 Sudoeste 14 Sudoeste 0 -- -- 50
2019-06-25 01:00:00 23.8 5 Oeste 9 Nordeste 0 -- -- 45
2019-06-25 00:00:00 26 5 Sudoeste 19 Oeste 0 -- -- 39
2019-06-24 23:00:00 28.3 9 Sudoeste 19 Oeste 0 -- -- 32
2019-06-24 22:00:00 30 9 Oeste 25 Oeste 0 -- -- 31
2019-06-24 21:00:00 31.3 13 Sudoeste 29 Sudoeste 0 -- -- 29
2019-06-24 20:00:00 32.4 14 Sudoeste 25 Sudoeste 0 -- -- 26
2019-06-24 19:00:00 33.1 21 Sudoeste 32 Sur 0 -- -- 25
2019-06-24 18:00:00 33.2 11 Oeste 23 Oeste 0 -- -- 26
2019-06-24 17:00:00 32 12 Oeste 22 Sudoeste 0 -- -- 28
2019-06-24 16:00:00 31.5 12 Sur 28 Sudoeste 0 -- -- 29
2019-06-24 15:00:00 31.1 18 Sudoeste 25 Sudoeste 0 -- -- 29
2019-06-24 14:00:00 31.1 10 Sudeste 22 Sur 0 -- -- 27
2019-06-24 13:00:00 29.1 7 Sudeste 17 Sur 0 -- -- 32
2019-06-24 12:00:00 26.6 9 Oeste 15 Sudoeste 0 -- -- 36
2019-06-24 11:00:00 25.2 6 Noroeste 14 Oeste 0 -- -- 37
2019-06-24 10:00:00 23.5 5 Sudoeste 10 Sur 0 -- -- 39
2019-06-24 09:00:00 22.7 4 Sur 12 Este 0 -- -- 40
2019-06-24 08:00:00 21.2 5 Nordeste 9 Este 0 -- -- 43
2019-06-24 07:00:00 20.8 3 Este 11 Sudeste 0 -- -- 41
2019-06-24 06:00:00 21.8 7 Este 24 Sudeste 0 -- -- 39
2019-06-24 05:00:00 22.5 14 Este 28 Este 0 -- -- 37
2019-06-24 04:00:00 23.4 9 Este 36 Sudeste 0 -- -- 37
2019-06-24 03:00:00 24.7 21 Sudeste 39 Sudeste 0 -- -- 35
2019-06-24 02:00:00 26.2 30 Sudeste 49 Sudeste 0 -- -- 33
2019-06-24 01:00:00 25.2 12 Sudeste 19 Sudeste 0 -- -- 33
2019-06-24 00:00:00 26.7 8 Sur 12 Sudoeste 0 -- -- 30
2019-06-23 23:00:00 29.2 4 Noroeste 18 Oeste 0 -- -- 26
2019-06-23 22:00:00 30.5 9 Oeste 21 Oeste 0 -- -- 25
2019-06-23 21:00:00 33 0 Calma 10 Oeste 0 -- -- 23
2019-06-23 20:00:00 33.5 6 Sudoeste 15 Oeste 0 -- -- 22
2019-06-23 19:00:00 33.8 14 Sudoeste 27 Sudoeste 0 -- -- 21
2019-06-23 18:00:00 34.4 18 Sudoeste 26 Sudoeste 0 -- -- 21
2019-06-23 17:00:00 34.1 5 Oeste 27 Sudoeste 0 -- -- 21
2019-06-23 16:00:00 34.1 20 Oeste 49 Sudoeste 0 -- -- 21
2019-06-23 15:00:00 33.1 16 Sudoeste 29 Sudoeste 0 -- -- 21
2019-06-23 14:00:00 31.3 19 Sudoeste 28 Sudoeste 0 -- -- 23
2019-06-23 13:00:00 29.8 14 Oeste 22 Sudoeste 0 -- -- 22
2019-06-23 12:00:00 28.2 10 Sudoeste 19 Sudoeste 0 -- -- 31
2019-06-23 11:00:00 25.7 6 Sudoeste 13 Sudoeste 0 -- -- 35
2019-06-23 10:00:00 24.5 6 Sudeste 14 Sudoeste 0 -- -- 38
2019-06-23 09:00:00 23 6 Este 12 Sudeste 0 -- -- 46
2019-06-23 08:00:00 20.3 4 Nordeste 7 Nordeste 0 -- -- 59
2019-06-23 07:00:00 18.3 0 Calma 10 Sudeste 0 -- -- 58
2019-06-23 06:00:00 19.8 5 Sudeste 12 Sudoeste 0 -- -- 54
2019-06-23 05:00:00 21.7 10 Sudeste 24 Sudeste 0 -- -- 50
2019-06-23 04:00:00 22.4 14 Sudeste 27 Sudeste 0 -- -- 49
2019-06-23 03:00:00 21.8 5 Este 13 Sudeste 0 -- -- 48
2019-06-23 02:00:00 20.3 3 Norte 13 Nordeste 0 -- -- 38
2019-06-23 01:00:00 20.4 0 Calma 4 Nordeste 0 -- -- 38
2019-06-23 00:00:00 22.3 3 Nordeste 4 Norte 0 -- -- 38
2019-06-22 23:00:00 24.7 0 Calma 6 Sur 0 -- -- 32
2019-06-22 22:00:00 27.7 4 Sudoeste 9 Sudoeste 0 -- -- 29
2019-06-22 21:00:00 30.6 6 Sudoeste 23 Sudoeste 0 -- -- 26
2019-06-22 20:00:00 32.3 8 Sudoeste 23 Sudoeste 0 -- -- 22
2019-06-22 19:00:00 32.8 13 Sudoeste 24 Sudoeste 0 -- -- 20
2019-06-22 18:00:00 32.3 17 Sudoeste 29 Sudoeste 0 -- -- 22
2019-06-22 17:00:00 32.4 18 Sudoeste 32 Sudoeste 0 -- -- 21
2019-06-22 16:00:00 32.3 17 Sudoeste 32 Sudoeste 0 -- -- 22
2019-06-22 15:00:00 31 18 Sudoeste 27 Sudoeste 0 -- -- 26
2019-06-22 14:00:00 29.8 6 Este 23 Oeste 0 -- -- 32
2019-06-22 13:00:00 28.5 5 Sudeste 16 Sudeste 0 -- -- 39
2019-06-22 12:00:00 26.1 5 Sur 18 Sudeste 0 -- -- 45
2019-06-22 11:00:00 23.7 5 Norte 16 Norte 0 -- -- 50
2019-06-22 10:00:00 22 7 Norte 12 Norte 0 -- -- 51
2019-06-22 09:00:00 19.5 4 Norte 12 Nordeste 0 -- -- 57
2019-06-22 08:00:00 17.5 6 Nordeste 12 Norte 0 -- -- 60
2019-06-22 07:00:00 16.6 8 Nordeste 14 Norte 0 -- -- 62
2019-06-22 06:00:00 16.5 0 Calma 10 Nordeste 0 -- -- 60
2019-06-22 05:00:00 17.8 5 Nordeste 14 Nordeste 0 -- -- 59
2019-06-22 04:00:00 18.5 10 Nordeste 19 Nordeste 0 -- -- 57
2019-06-22 03:00:00 19.4 13 Nordeste 31 Norte 0 -- -- 54
2019-06-22 02:00:00 20.8 17 Norte 31 Nordeste 0 -- -- 51
2019-06-22 01:00:00 22.3 16 Nordeste 28 Norte 0 -- -- 44
2019-06-22 00:00:00 23.8 14 Nordeste 30 Norte 0 -- -- 40
2019-06-21 23:00:00 24.9 16 Norte 31 Norte 0 -- -- 35
2019-06-21 22:00:00 26.5 10 Norte 18 Norte 0 -- -- 33
2019-06-21 21:00:00 28.4 3 Nordeste 13 Noroeste 0 -- -- 29
2019-06-21 20:00:00 29 8 Noroeste 21 Oeste 0 -- -- 28
2019-06-21 19:00:00 30.7 9 Noroeste 20 Oeste 0 -- -- 25
2019-06-21 18:00:00 29.7 14 Sudoeste 40 Sur 0 -- -- 24
2019-06-21 17:00:00 31.3 6 Noroeste 24 Sudoeste 0 -- -- 22
2019-06-21 16:00:00 28.5 9 Sur 24 Sudoeste 0 -- -- 27
2019-06-21 15:00:00 29 6 Sur 29 Oeste 0 -- -- 29
2019-06-21 14:00:00 27.9 12 Sudoeste 23 Noroeste 0 -- -- 31
2019-06-21 13:00:00 26.8 10 Sudoeste 21 Oeste 0 -- -- 34
2019-06-21 12:00:00 25.4 7 Oeste 14 Noroeste 0 -- -- 40
2019-06-21 11:00:00 23.9 4 Oeste 11 Noroeste 0 -- -- 47
2019-06-21 10:00:00 22.1 6 Norte 15 Nordeste 0 -- -- 52
2019-06-21 09:00:00 20.3 9 Norte 19 Nordeste 0 -- -- 58
2019-06-21 08:00:00 19.1 6 Nordeste 21 Nordeste 0 -- -- 60
2019-06-21 07:00:00 17.9 11 Nordeste 27 Norte 0 -- -- 63
2019-06-21 06:00:00 18.4 13 Nordeste 27 Norte 0 -- -- 62
2019-06-21 05:00:00 19.1 8 Norte 19 Norte 0 -- -- 60
2019-06-21 04:00:00 19.9 4 Nordeste 13 Nordeste 0 -- -- 57
2019-06-21 03:00:00 20.4 7 Norte 15 Norte 0 -- -- 54
2019-06-21 02:00:00 20.5 3 Sudoeste 4 Sudoeste 0 -- -- 50
2019-06-21 01:00:00 21 3 Sudoeste 8 Sur 0 -- -- 47
2019-06-21 00:00:00 22.3 6 Sur 18 Sudoeste 0 -- -- 43
2019-06-20 23:00:00 24.1 14 Oeste 22 Oeste 0 -- -- 40
2019-06-20 22:00:00 25.4 14 Oeste 28 Oeste 0 -- -- 37
2019-06-20 21:00:00 27 19 Oeste 31 Sudoeste 0 -- -- 34
2019-06-20 20:00:00 28.5 19 Sudoeste 36 Sudoeste 0 -- -- 30
2019-06-20 19:00:00 29.6 15 Oeste 32 Sudoeste 0 -- -- 29
2019-06-20 18:00:00 29.1 20 Sudoeste 36 Sudoeste 0 -- -- 29
2019-06-20 17:00:00 29 20 Sudoeste 33 Sudoeste 0 -- -- 30
2019-06-20 16:00:00 28 14 Oeste 32 Sudoeste 0 -- -- 31
2019-06-20 15:00:00 27.1 18 Oeste 37 Oeste 0 -- -- 32
2019-06-20 14:00:00 27.4 16 Sudoeste 28 Sur 0 -- -- 33
2019-06-20 13:00:00 27.6 11 Sur 24 Sudoeste 0 -- -- 36
2019-06-20 12:00:00 24.8 6 Sudoeste 19 Sudoeste 0 -- -- 43
2019-06-20 11:00:00 23.4 8 Sudoeste 15 Sudoeste 0 -- -- 45
2019-06-20 10:00:00 21.4 3 Sudoeste 10 Oeste 0 -- -- 51
2019-06-20 09:00:00 19.2 0 Calma 6 Nordeste 0 -- -- 55
2019-06-20 08:00:00 16.7 3 Nordeste 7 Nordeste 0 -- -- 62
2019-06-20 07:00:00 14.6 0 Calma 7 Nordeste 0 -- -- 63
2019-06-20 06:00:00 14.8 4 Nordeste 6 Nordeste 0 -- -- 67
2019-06-20 05:00:00 15.9 0 Calma 4 Noroeste 0 -- -- 61
2019-06-20 04:00:00 17.2 2 Sudeste 5 Sur 0 -- -- 57
2019-06-20 03:00:00 18.7 4 Sur 12 Oeste 0 -- -- 54
2019-06-20 02:00:00 20.2 8 Oeste 14 Sudoeste 0 -- -- 50
2019-06-20 01:00:00 20.4 7 Sudoeste 15 Sudoeste 0 -- -- 47
2019-06-20 00:00:00 21.4 9 Sur 23 Oeste 0 -- -- 46